createdAt,value
2019-05-30T00:00:19.910Z,1013.09
2019-05-30T00:01:19.557Z,1012.99
2019-05-30T00:02:19.156Z,1013.10
2019-05-30T00:03:18.842Z,1013.04
2019-05-30T00:04:18.514Z,1013.09
2019-05-30T00:05:17.965Z,1013.08
2019-05-30T00:06:17.490Z,1013.08
2019-05-30T00:07:17.056Z,1013.06
2019-05-30T00:08:16.772Z,1013.08
2019-05-30T00:09:16.271Z,1013.06
2019-05-30T00:10:15.983Z,1013.03
2019-05-30T00:11:15.498Z,1013.06
2019-05-30T00:12:15.090Z,1013.07
2019-05-30T00:13:14.783Z,1013.11
2019-05-30T00:14:14.381Z,1013.05
2019-05-30T00:15:13.886Z,1013.04
2019-05-30T00:16:13.444Z,1013.10
2019-05-30T00:17:13.007Z,1013.04
2019-05-30T00:18:12.555Z,1013.04
2019-05-30T00:19:12.118Z,1013.09
2019-05-30T00:20:11.751Z,1013.00
2019-05-30T00:21:11.381Z,1013.05
2019-05-30T00:22:10.996Z,1013.02
2019-05-30T00:23:13.564Z,1013.04
2019-05-30T00:24:12.377Z,1013.04
2019-05-30T00:25:11.936Z,1012.99
2019-05-30T00:26:11.530Z,1013.06
2019-05-30T00:27:11.200Z,1013.04
2019-05-30T00:28:10.810Z,1013.03
2019-05-30T00:29:10.330Z,1012.98
2019-05-30T00:30:23.813Z,1013.04
2019-05-30T00:31:09.555Z,1013.00
2019-05-30T00:32:09.080Z,1013.00
2019-05-30T00:33:08.678Z,1012.99
2019-05-30T00:34:08.289Z,1012.98
2019-05-30T00:35:07.990Z,1013.07
2019-05-30T00:36:07.527Z,1012.99
2019-05-30T00:37:07.031Z,1013.08
2019-05-30T00:38:06.621Z,1013.09
2019-05-30T00:39:06.637Z,1013.08
2019-05-30T00:40:06.155Z,1013.05
2019-05-30T00:41:06.199Z,1012.98
2019-05-30T00:42:06.170Z,1012.96
2019-05-30T00:43:04.711Z,1013.03
2019-05-30T00:44:04.430Z,1013.05
2019-05-30T00:45:18.166Z,1012.99
2019-05-30T00:46:04.208Z,1012.92
2019-05-30T00:47:04.320Z,1012.95
2019-05-30T00:48:02.561Z,1012.95
2019-05-30T00:49:02.523Z,1012.92
2019-05-30T00:50:02.730Z,1012.97
2019-05-30T00:51:02.582Z,1012.87
2019-05-30T00:52:00.921Z,1012.94
2019-05-30T00:53:00.780Z,1012.99
2019-05-30T00:54:00.695Z,1012.89
2019-05-30T00:55:00.666Z,1012.87
2019-05-30T00:56:01.366Z,1012.92
2019-05-30T00:56:58.937Z,1012.86
2019-05-30T00:57:58.575Z,1012.94
2019-05-30T00:58:58.703Z,1012.86
2019-05-30T00:59:58.751Z,1012.85
2019-05-30T01:00:57.192Z,1012.89
2019-05-30T01:01:56.704Z,1012.93
2019-05-30T01:03:00.969Z,1012.91
2019-05-30T01:03:56.720Z,1012.83
2019-05-30T01:04:56.877Z,1012.94
2019-05-30T01:05:55.039Z,1012.95
2019-05-30T01:06:54.615Z,1012.96
2019-05-30T01:07:54.035Z,1012.95
2019-05-30T01:08:53.783Z,1012.92
2019-05-30T01:09:53.412Z,1012.95
2019-05-30T01:10:52.968Z,1012.92
2019-05-30T01:11:52.521Z,1012.91
2019-05-30T01:12:52.033Z,1012.95
2019-05-30T01:13:51.659Z,1012.91
2019-05-30T01:14:51.164Z,1012.89
2019-05-30T01:15:50.793Z,1012.92
2019-05-30T01:16:50.371Z,1012.91
2019-05-30T01:17:49.775Z,1012.81
2019-05-30T01:18:52.409Z,1012.87
2019-05-30T01:19:51.171Z,1012.87
2019-05-30T01:20:50.805Z,1012.83
2019-05-30T01:21:50.329Z,1012.83
2019-05-30T01:22:49.931Z,1012.85
2019-05-30T01:23:49.476Z,1012.89
2019-05-30T01:24:49.151Z,1012.87
2019-05-30T01:25:48.696Z,1012.88
2019-05-30T01:26:48.241Z,1012.88
2019-05-30T01:27:47.824Z,1012.87
2019-05-30T01:28:47.415Z,1012.87
2019-05-30T01:29:47.003Z,1012.87
2019-05-30T01:30:59.509Z,1012.91
2019-05-30T01:31:46.215Z,1012.87
2019-05-30T01:32:45.817Z,1012.89
2019-05-30T01:33:45.382Z,1012.89
2019-05-30T01:34:45.016Z,1012.83
2019-05-30T01:35:44.570Z,1012.75
2019-05-30T01:36:44.125Z,1012.89
2019-05-30T01:37:43.749Z,1012.82
2019-05-30T01:38:43.261Z,1012.84
2019-05-30T01:39:42.802Z,1012.86
2019-05-30T01:40:42.427Z,1012.91
2019-05-30T01:41:41.947Z,1012.89
2019-05-30T01:42:41.546Z,1012.89
2019-05-30T01:43:41.121Z,1012.86
2019-05-30T01:44:40.747Z,1012.92
2019-05-30T01:45:40.389Z,1012.85
2019-05-30T01:46:39.998Z,1012.84
2019-05-30T01:47:39.568Z,1012.82
2019-05-30T01:48:39.148Z,1012.81
2019-05-30T01:49:38.750Z,1012.80
2019-05-30T01:50:38.422Z,1012.86
2019-05-30T01:51:37.938Z,1012.88
2019-05-30T01:52:37.551Z,1012.79
2019-05-30T01:53:37.140Z,1012.78
2019-05-30T01:54:36.728Z,1012.83
2019-05-30T01:55:36.331Z,1012.78
2019-05-30T01:56:38.876Z,1012.74
2019-05-30T01:57:37.644Z,1012.81
2019-05-30T01:58:37.309Z,1012.83
2019-05-30T01:59:36.898Z,1012.81
2019-05-30T02:00:36.455Z,1012.83
2019-05-30T02:01:35.997Z,1012.78
2019-05-30T02:02:35.544Z,1012.79
2019-05-30T02:03:35.204Z,1012.82
2019-05-30T02:04:34.788Z,1012.82
2019-05-30T02:05:34.327Z,1012.77
2019-05-30T02:06:37.739Z,1012.80
2019-05-30T02:07:33.439Z,1012.79
2019-05-30T02:08:33.044Z,1012.75
2019-05-30T02:09:32.534Z,1012.79
2019-05-30T02:10:32.155Z,1012.70
2019-05-30T02:11:31.685Z,1012.72
2019-05-30T02:12:31.212Z,1012.80
2019-05-30T02:13:30.816Z,1012.80
2019-05-30T02:14:30.414Z,1012.73
2019-05-30T02:15:29.965Z,1012.82
2019-05-30T02:16:29.511Z,1012.78
2019-05-30T02:17:29.161Z,1012.79
2019-05-30T02:18:28.738Z,1012.77
2019-05-30T02:19:28.277Z,1012.80
2019-05-30T02:20:27.902Z,1012.77
2019-05-30T02:21:27.417Z,1012.84
2019-05-30T02:22:26.960Z,1012.76
2019-05-30T02:23:26.514Z,1012.70
2019-05-30T02:24:26.099Z,1012.82
2019-05-30T02:25:25.683Z,1012.80
2019-05-30T02:26:25.228Z,1012.76
2019-05-30T02:27:24.818Z,1012.74
2019-05-30T02:28:24.375Z,1012.76
2019-05-30T02:29:23.965Z,1012.83
2019-05-30T02:30:23.527Z,1012.76
2019-05-30T02:31:38.279Z,1012.80
2019-05-30T02:32:22.737Z,1012.83
2019-05-30T02:33:22.270Z,1012.80
2019-05-30T02:34:22.060Z,1012.89
2019-05-30T02:35:21.494Z,1012.83
2019-05-30T02:36:21.108Z,1012.89
2019-05-30T02:37:20.604Z,1012.81
2019-05-30T02:38:20.185Z,1012.92
2019-05-30T02:39:19.735Z,1012.88
2019-05-30T02:40:19.286Z,1012.83
2019-05-30T02:41:18.815Z,1012.91
2019-05-30T02:42:18.399Z,1012.89
2019-05-30T02:43:17.959Z,1012.94
2019-05-30T02:44:17.509Z,1012.90
2019-05-30T02:45:17.147Z,1012.96
2019-05-30T02:46:16.784Z,1012.93
2019-05-30T02:47:16.294Z,1012.99
2019-05-30T02:48:15.821Z,1013.00
2019-05-30T02:49:15.410Z,1013.02
2019-05-30T02:50:14.955Z,1012.94
2019-05-30T02:51:14.531Z,1012.99
2019-05-30T02:52:14.139Z,1012.94
2019-05-30T02:53:13.766Z,1012.98
2019-05-30T02:54:13.534Z,1013.03
2019-05-30T02:55:13.719Z,1013.03
2019-05-30T02:56:12.842Z,1013.01
2019-05-30T02:57:12.677Z,1012.99
2019-05-30T02:58:12.860Z,1012.96
2019-05-30T02:59:13.385Z,1013.03
2019-05-30T03:00:15.660Z,1013.00
2019-05-30T03:01:11.949Z,1013.03
2019-05-30T03:02:15.206Z,1013.03
2019-05-30T03:03:12.328Z,1013.01
2019-05-30T03:04:10.927Z,1013.07
2019-05-30T03:05:11.797Z,1013.05
2019-05-30T03:06:09.187Z,1012.93
2019-05-30T03:07:09.031Z,1013.04
2019-05-30T03:08:09.783Z,1013.00
2019-05-30T03:09:08.464Z,1013.09
2019-05-30T03:10:07.670Z,1013.01
2019-05-30T03:11:09.347Z,1012.95
2019-05-30T03:12:06.963Z,1012.96
2019-05-30T03:13:06.454Z,1013.05
2019-05-30T03:14:07.030Z,1013.00
2019-05-30T03:15:05.280Z,1013.02
2019-05-30T03:16:05.054Z,1013.03
2019-05-30T03:17:05.314Z,1013.04
2019-05-30T03:18:04.668Z,1013.03
2019-05-30T03:19:03.829Z,1013.02
2019-05-30T03:20:10.024Z,1013.02
2019-05-30T03:21:03.273Z,1013.04
2019-05-30T03:22:03.427Z,1013.06
2019-05-30T03:23:03.216Z,1013.10
2019-05-30T03:24:02.533Z,1013.03
2019-05-30T03:25:02.776Z,1013.07
2019-05-30T03:26:00.050Z,1012.99
2019-05-30T03:26:59.632Z,1013.14
2019-05-30T03:27:59.217Z,1013.10
2019-05-30T03:28:58.839Z,1013.17
2019-05-30T03:29:58.349Z,1013.15
2019-05-30T03:30:57.980Z,1013.15
2019-05-30T03:31:57.535Z,1013.17
2019-05-30T03:33:06.733Z,1013.20
2019-05-30T03:33:56.656Z,1013.17
2019-05-30T03:34:56.211Z,1013.16
2019-05-30T03:35:55.843Z,1013.17
2019-05-30T03:36:55.404Z,1013.21
2019-05-30T03:37:54.800Z,1013.21
2019-05-30T03:38:54.475Z,1013.20
2019-05-30T03:39:54.170Z,1013.21
2019-05-30T03:40:53.718Z,1013.30
2019-05-30T03:41:53.216Z,1013.24
2019-05-30T03:42:52.795Z,1013.15
2019-05-30T03:43:52.327Z,1013.22
2019-05-30T03:44:51.889Z,1013.27
2019-05-30T03:45:51.471Z,1013.24
2019-05-30T03:46:51.055Z,1013.38
2019-05-30T03:47:50.591Z,1013.34
2019-05-30T03:48:50.138Z,1013.33
2019-05-30T03:49:49.657Z,1013.29
2019-05-30T03:50:49.209Z,1013.36
2019-05-30T03:51:48.796Z,1013.39
2019-05-30T03:52:48.337Z,1013.42
2019-05-30T03:53:47.850Z,1013.36
2019-05-30T03:54:47.426Z,1013.44
2019-05-30T03:55:46.975Z,1013.35
2019-05-30T03:56:46.651Z,1013.46
2019-05-30T03:57:46.159Z,1013.38
2019-05-30T03:58:45.678Z,1013.43
2019-05-30T03:59:48.260Z,1013.31
2019-05-30T04:00:50.915Z,1013.43
2019-05-30T04:01:46.706Z,1013.41
2019-05-30T04:02:57.702Z,1013.42
2019-05-30T04:03:48.609Z,1013.47
2019-05-30T04:04:47.502Z,1013.45
2019-05-30T04:05:46.866Z,1013.45
2019-05-30T04:06:46.564Z,1013.50
2019-05-30T04:07:46.133Z,1013.47
2019-05-30T04:08:45.779Z,1013.50
2019-05-30T04:09:45.395Z,1013.53
2019-05-30T04:10:44.990Z,1013.50
2019-05-30T04:11:44.555Z,1013.47
2019-05-30T04:12:44.174Z,1013.56
2019-05-30T04:13:43.743Z,1013.51
2019-05-30T04:14:43.342Z,1013.52
2019-05-30T04:15:42.902Z,1013.57
2019-05-30T04:16:42.622Z,1013.56
2019-05-30T04:17:42.166Z,1013.51
2019-05-30T04:18:41.708Z,1013.57
2019-05-30T04:19:41.308Z,1013.57
2019-05-30T04:20:40.935Z,1013.52
2019-05-30T04:21:40.626Z,1013.60
2019-05-30T04:22:40.254Z,1013.53
2019-05-30T04:23:39.787Z,1013.50
2019-05-30T04:24:39.343Z,1013.56
2019-05-30T04:25:38.896Z,1013.54
2019-05-30T04:26:38.531Z,1013.61
2019-05-30T04:27:38.086Z,1013.56
2019-05-30T04:28:37.612Z,1013.61
2019-05-30T04:29:37.240Z,1013.52
2019-05-30T04:30:36.825Z,1013.63
2019-05-30T04:31:36.489Z,1013.60
2019-05-30T04:32:36.041Z,1013.68
2019-05-30T04:33:35.598Z,1013.69
2019-05-30T04:34:35.316Z,1013.64
2019-05-30T04:35:34.831Z,1013.60
2019-05-30T04:36:34.478Z,1013.62
2019-05-30T04:37:34.076Z,1013.50
2019-05-30T04:38:33.580Z,1013.61
2019-05-30T04:39:33.235Z,1013.62
2019-05-30T04:40:32.813Z,1013.65
2019-05-30T04:41:32.395Z,1013.61
2019-05-30T04:42:31.888Z,1013.66
2019-05-30T04:43:31.470Z,1013.63
2019-05-30T04:44:31.029Z,1013.54
2019-05-30T04:45:30.671Z,1013.62
2019-05-30T04:46:30.237Z,1013.61
2019-05-30T04:47:29.804Z,1013.57
2019-05-30T04:48:29.376Z,1013.61
2019-05-30T04:49:28.980Z,1013.63
2019-05-30T04:50:28.553Z,1013.61
2019-05-30T04:51:28.030Z,1013.64
2019-05-30T04:52:27.683Z,1013.66
2019-05-30T04:53:27.251Z,1013.58
2019-05-30T04:54:26.783Z,1013.70
2019-05-30T04:55:26.465Z,1013.69
2019-05-30T04:56:25.980Z,1013.66
2019-05-30T04:57:27.182Z,1013.66
2019-05-30T04:58:25.201Z,1013.67
2019-05-30T04:59:27.777Z,1013.68
2019-05-30T05:00:26.618Z,1013.70
2019-05-30T05:01:26.121Z,1013.65
2019-05-30T05:02:25.850Z,1013.75
2019-05-30T05:03:44.532Z,1013.74
2019-05-30T05:04:27.175Z,1013.81
2019-05-30T05:05:27.180Z,1013.67
2019-05-30T05:06:26.459Z,1013.75
2019-05-30T05:07:28.989Z,1013.77
2019-05-30T05:08:27.827Z,1013.75
2019-05-30T05:09:27.357Z,1013.78
2019-05-30T05:10:26.921Z,1013.77
2019-05-30T05:11:26.318Z,1013.80
2019-05-30T05:12:26.005Z,1013.77
2019-05-30T05:13:25.388Z,1013.80
2019-05-30T05:14:24.940Z,1013.74
2019-05-30T05:15:24.448Z,1013.80
2019-05-30T05:16:34.767Z,1013.85
2019-05-30T05:17:23.711Z,1013.78
2019-05-30T05:18:23.416Z,1013.79
2019-05-30T05:19:25.720Z,1013.82
2019-05-30T05:20:23.491Z,1013.80
2019-05-30T05:21:22.883Z,1013.84
2019-05-30T05:22:21.230Z,1013.90
2019-05-30T05:23:21.348Z,1013.85
2019-05-30T05:24:21.466Z,1013.79
2019-05-30T05:25:19.814Z,1013.83
2019-05-30T05:26:19.549Z,1013.87
2019-05-30T05:27:19.671Z,1013.83
2019-05-30T05:28:18.296Z,1013.82
2019-05-30T05:29:18.009Z,1013.86
2019-05-30T05:30:17.981Z,1013.83
2019-05-30T05:31:16.816Z,1013.79
2019-05-30T05:32:16.285Z,1013.87
2019-05-30T05:33:16.663Z,1013.84
2019-05-30T05:34:16.569Z,1013.87
2019-05-30T05:35:14.892Z,1013.83
2019-05-30T05:36:14.876Z,1013.71
2019-05-30T05:37:14.908Z,1013.74
2019-05-30T05:38:13.424Z,1013.80
2019-05-30T05:39:12.926Z,1013.79
2019-05-30T05:40:12.441Z,1013.83
2019-05-30T05:41:11.917Z,1013.78
2019-05-30T05:42:11.443Z,1013.80
2019-05-30T05:43:10.925Z,1013.81
2019-05-30T05:44:10.432Z,1013.86
2019-05-30T05:45:09.935Z,1013.77
2019-05-30T05:46:09.377Z,1013.88
2019-05-30T05:47:08.914Z,1013.77
2019-05-30T05:48:08.391Z,1013.81
2019-05-30T05:49:07.906Z,1013.85
2019-05-30T05:50:07.378Z,1013.84
2019-05-30T05:51:06.913Z,1013.92
2019-05-30T05:52:06.375Z,1013.92
2019-05-30T05:53:05.910Z,1013.89
2019-05-30T05:54:05.389Z,1013.89
2019-05-30T05:55:04.877Z,1013.95
2019-05-30T05:56:04.382Z,1013.88
2019-05-30T05:57:06.818Z,1013.95
2019-05-30T05:58:05.525Z,1013.97
2019-05-30T05:59:05.023Z,1013.95
2019-05-30T06:00:04.498Z,1013.94
2019-05-30T06:01:04.009Z,1013.93
2019-05-30T06:02:03.523Z,1014.00
2019-05-30T06:03:03.079Z,1014.00
2019-05-30T06:04:12.490Z,1014.04
2019-05-30T06:05:02.148Z,1014.06
2019-05-30T06:06:01.668Z,1014.08
2019-05-30T06:07:01.179Z,1014.06
2019-05-30T06:08:00.625Z,1013.98
2019-05-30T06:09:00.207Z,1014.02
2019-05-30T06:09:59.709Z,1013.99
2019-05-30T06:10:59.226Z,1014.09
2019-05-30T06:11:58.675Z,1014.06
2019-05-30T06:12:58.215Z,1014.01
2019-05-30T06:13:57.708Z,1014.04
2019-05-30T06:14:57.181Z,1014.08
2019-05-30T06:15:56.654Z,1014.01
2019-05-30T06:16:56.258Z,1014.05
2019-05-30T06:17:55.661Z,1014.03
2019-05-30T06:18:55.217Z,1014.07
2019-05-30T06:19:54.668Z,1014.12
2019-05-30T06:20:54.196Z,1014.12
2019-05-30T06:21:54.647Z,1014.14
2019-05-30T06:22:53.454Z,1014.17
2019-05-30T06:23:52.844Z,1014.13
2019-05-30T06:24:52.574Z,1014.17
2019-05-30T06:25:51.909Z,1014.16
2019-05-30T06:26:52.071Z,1014.16
2019-05-30T06:27:51.873Z,1014.14
2019-05-30T06:28:51.237Z,1014.20
2019-05-30T06:29:50.800Z,1014.18
2019-05-30T06:30:50.378Z,1014.13
2019-05-30T06:31:49.950Z,1014.16
2019-05-30T06:32:49.528Z,1014.25
2019-05-30T06:33:49.089Z,1014.20
2019-05-30T06:34:48.683Z,1014.24
2019-05-30T06:35:48.267Z,1014.22
2019-05-30T06:36:47.858Z,1014.27
2019-05-30T06:37:47.440Z,1014.20
2019-05-30T06:38:46.985Z,1014.31
2019-05-30T06:39:46.571Z,1014.24
2019-05-30T06:40:46.106Z,1014.31
2019-05-30T06:41:45.647Z,1014.33
2019-05-30T06:42:45.273Z,1014.30
2019-05-30T06:43:44.822Z,1014.31
2019-05-30T06:44:44.402Z,1014.33
2019-05-30T06:45:44.001Z,1014.23
2019-05-30T06:46:43.602Z,1014.34
2019-05-30T06:47:43.164Z,1014.33
2019-05-30T06:48:42.816Z,1014.40
2019-05-30T06:49:42.211Z,1014.38
2019-05-30T06:50:41.856Z,1014.35
2019-05-30T06:51:41.386Z,1014.39
2019-05-30T06:52:41.024Z,1014.44
2019-05-30T06:53:40.613Z,1014.35
2019-05-30T06:54:40.139Z,1014.35
2019-05-30T06:55:39.564Z,1014.22
2019-05-30T06:56:39.302Z,1014.39
2019-05-30T06:57:38.884Z,1014.38
2019-05-30T06:58:47.892Z,1014.38
2019-05-30T06:59:37.911Z,1014.26
2019-05-30T07:00:37.454Z,1014.29
2019-05-30T07:01:37.030Z,1014.32
2019-05-30T07:02:36.529Z,1014.23
2019-05-30T07:03:36.012Z,1014.25
2019-05-30T07:04:50.956Z,1014.33
2019-05-30T07:05:35.870Z,1014.34
2019-05-30T07:06:34.940Z,1014.22
2019-05-30T07:07:34.296Z,1014.23
2019-05-30T07:08:33.772Z,1014.29
2019-05-30T07:09:33.368Z,1014.34
2019-05-30T07:10:33.191Z,1014.31
2019-05-30T07:11:33.099Z,1014.34
2019-05-30T07:12:33.203Z,1014.34
2019-05-30T07:13:31.813Z,1014.33
2019-05-30T07:14:31.512Z,1014.35
2019-05-30T07:15:31.430Z,1014.42
2019-05-30T07:16:31.496Z,1014.36
2019-05-30T07:17:31.474Z,1014.35
2019-05-30T07:18:33.733Z,1014.45
2019-05-30T07:19:29.548Z,1014.39
2019-05-30T07:20:29.661Z,1014.40
2019-05-30T07:21:29.688Z,1014.38
2019-05-30T07:22:28.007Z,1014.41
2019-05-30T07:23:27.905Z,1014.43
2019-05-30T07:24:27.784Z,1014.42
2019-05-30T07:25:27.865Z,1014.43
2019-05-30T07:26:26.279Z,1014.33
2019-05-30T07:27:26.186Z,1014.49
2019-05-30T07:28:25.840Z,1014.48
2019-05-30T07:29:25.799Z,1014.54
2019-05-30T07:30:24.453Z,1014.40
2019-05-30T07:31:24.139Z,1014.44
2019-05-30T07:32:24.031Z,1014.48
2019-05-30T07:33:23.933Z,1014.43
2019-05-30T07:34:22.462Z,1014.39
2019-05-30T07:35:22.223Z,1014.49
2019-05-30T07:36:21.609Z,1014.46
2019-05-30T07:37:21.110Z,1014.43
2019-05-30T07:38:20.628Z,1014.47
2019-05-30T07:39:26.387Z,1014.44
2019-05-30T07:40:21.923Z,1014.44
2019-05-30T07:41:21.647Z,1014.40
2019-05-30T07:42:21.006Z,1014.49
2019-05-30T07:43:20.684Z,1014.40
2019-05-30T07:44:20.116Z,1014.42
2019-05-30T07:45:19.617Z,1014.45
2019-05-30T07:46:19.037Z,1014.46
2019-05-30T07:47:18.811Z,1014.49
2019-05-30T07:48:18.475Z,1014.46
2019-05-30T07:49:18.095Z,1014.47
2019-05-30T07:50:17.809Z,1014.41
2019-05-30T07:51:17.151Z,1014.49
2019-05-30T07:52:16.771Z,1014.46
2019-05-30T07:53:16.433Z,1014.49
2019-05-30T07:54:16.056Z,1014.43
2019-05-30T07:55:15.419Z,1014.49
2019-05-30T07:56:15.003Z,1014.49
2019-05-30T07:57:14.527Z,1014.43
2019-05-30T07:58:14.192Z,1014.41
2019-05-30T07:59:13.594Z,1014.45
2019-05-30T08:00:13.249Z,1014.31
2019-05-30T08:01:12.754Z,1014.50
2019-05-30T08:02:12.283Z,1014.49
2019-05-30T08:03:11.813Z,1014.48
2019-05-30T08:04:11.284Z,1014.52
2019-05-30T08:05:23.405Z,1014.40
2019-05-30T08:06:10.348Z,1014.42
2019-05-30T08:07:09.808Z,1014.40
2019-05-30T08:08:09.327Z,1014.46
2019-05-30T08:09:08.858Z,1014.50
2019-05-30T08:10:08.282Z,1014.44
2019-05-30T08:11:09.927Z,1014.46
2019-05-30T08:12:07.352Z,1014.42
2019-05-30T08:13:06.824Z,1014.40
2019-05-30T08:14:06.392Z,1014.36
2019-05-30T08:15:05.903Z,1014.40
2019-05-30T08:16:05.364Z,1014.41
2019-05-30T08:17:04.855Z,1014.35
2019-05-30T08:18:04.380Z,1014.36
2019-05-30T08:19:03.898Z,1014.45
2019-05-30T08:20:03.641Z,1014.30
2019-05-30T08:21:03.016Z,1014.41
2019-05-30T08:22:02.551Z,1014.42
2019-05-30T08:23:02.098Z,1014.36
2019-05-30T08:24:01.644Z,1014.41
2019-05-30T08:25:01.125Z,1014.42
2019-05-30T08:26:00.581Z,1014.40
2019-05-30T08:27:00.130Z,1014.37
2019-05-30T08:27:59.609Z,1014.36
2019-05-30T08:28:59.227Z,1014.34
2019-05-30T08:29:58.688Z,1014.30
2019-05-30T08:30:58.174Z,1014.31
2019-05-30T08:31:57.651Z,1014.36
2019-05-30T08:32:57.414Z,1014.30
2019-05-30T08:33:56.990Z,1014.33
2019-05-30T08:34:56.525Z,1014.31
2019-05-30T08:35:56.147Z,1014.30
2019-05-30T08:36:55.520Z,1014.29
2019-05-30T08:37:55.061Z,1014.37
2019-05-30T08:38:54.638Z,1014.42
2019-05-30T08:39:54.336Z,1014.32
2019-05-30T08:40:53.908Z,1014.35
2019-05-30T08:41:53.473Z,1014.38
2019-05-30T08:42:53.044Z,1014.35
2019-05-30T08:43:52.699Z,1014.40
2019-05-30T08:44:52.350Z,1014.34
2019-05-30T08:45:51.884Z,1014.29
2019-05-30T08:46:51.462Z,1014.34
2019-05-30T08:47:51.071Z,1014.30
2019-05-30T08:48:50.475Z,1014.21
2019-05-30T08:49:49.974Z,1014.23
2019-05-30T08:50:49.502Z,1014.24
2019-05-30T08:51:49.076Z,1014.23
2019-05-30T08:52:48.839Z,1014.21
2019-05-30T08:53:48.400Z,1014.26
2019-05-30T08:54:48.050Z,1014.23
2019-05-30T08:55:47.433Z,1014.24
2019-05-30T08:56:46.925Z,1014.31
2019-05-30T08:57:46.458Z,1014.29
2019-05-30T08:58:45.976Z,1014.23
2019-05-30T08:59:45.462Z,1014.17
2019-05-30T09:00:45.062Z,1014.25
2019-05-30T09:01:45.999Z,1014.21
2019-05-30T09:02:45.110Z,1014.23
2019-05-30T09:03:44.167Z,1014.17
2019-05-30T09:04:43.958Z,1014.13
2019-05-30T09:05:57.241Z,1014.18
2019-05-30T09:06:42.145Z,1014.18
2019-05-30T09:07:42.909Z,1014.14
2019-05-30T09:08:42.138Z,1014.10
2019-05-30T09:09:40.625Z,1014.09
2019-05-30T09:10:40.829Z,1014.13
2019-05-30T09:11:40.570Z,1014.11
2019-05-30T09:12:42.078Z,1014.08
2019-05-30T09:13:40.322Z,1014.08
2019-05-30T09:14:39.288Z,1014.08
2019-05-30T09:15:39.149Z,1014.00
2019-05-30T09:16:37.929Z,1013.98
2019-05-30T09:17:38.739Z,1014.01
2019-05-30T09:18:39.505Z,1014.03
2019-05-30T09:19:37.959Z,1013.96
2019-05-30T09:20:37.946Z,1013.90
2019-05-30T09:21:36.845Z,1013.89
2019-05-30T09:22:35.492Z,1013.96
2019-05-30T09:23:34.973Z,1013.94
2019-05-30T09:24:34.567Z,1013.93
2019-05-30T09:25:34.193Z,1013.96
2019-05-30T09:26:33.753Z,1013.96
2019-05-30T09:27:33.805Z,1014.01
2019-05-30T09:28:33.272Z,1013.94
2019-05-30T09:29:32.807Z,1013.96
2019-05-30T09:30:32.474Z,1013.95
2019-05-30T09:31:32.124Z,1013.98
2019-05-30T09:32:31.691Z,1013.91
2019-05-30T09:33:31.267Z,1013.91
2019-05-30T09:34:30.836Z,1013.96
2019-05-30T09:35:30.468Z,1013.92
2019-05-30T09:36:30.111Z,1013.90
2019-05-30T09:37:29.705Z,1013.95
2019-05-30T09:38:29.257Z,1013.92
2019-05-30T09:39:29.788Z,1013.91
2019-05-30T09:40:28.417Z,1013.96
2019-05-30T09:41:28.046Z,1013.97
2019-05-30T09:42:27.603Z,1013.95
2019-05-30T09:43:27.220Z,1013.95
2019-05-30T09:44:26.801Z,1013.95
2019-05-30T09:45:26.182Z,1013.92
2019-05-30T09:46:25.904Z,1013.94
2019-05-30T09:47:25.481Z,1013.96
2019-05-30T09:48:25.093Z,1013.92
2019-05-30T09:49:24.670Z,1013.88
2019-05-30T09:50:24.269Z,1013.92
2019-05-30T09:51:23.870Z,1013.90
2019-05-30T09:52:23.474Z,1013.96
2019-05-30T09:53:23.167Z,1014.00
2019-05-30T09:54:22.839Z,1013.96
2019-05-30T09:55:22.594Z,1014.01
2019-05-30T09:56:22.374Z,1013.96
2019-05-30T09:57:26.756Z,1013.95
2019-05-30T09:58:25.429Z,1013.94
2019-05-30T09:59:25.025Z,1013.91
2019-05-30T10:00:24.387Z,1013.97
2019-05-30T10:01:24.135Z,1013.88
2019-05-30T10:02:23.671Z,1013.86
2019-05-30T10:03:23.292Z,1013.87
2019-05-30T10:04:22.860Z,1013.87
2019-05-30T10:05:24.669Z,1013.82
2019-05-30T10:06:29.348Z,1013.75
2019-05-30T10:07:21.708Z,1013.80
2019-05-30T10:08:21.358Z,1013.81
2019-05-30T10:09:20.910Z,1013.86
2019-05-30T10:10:20.370Z,1013.83
2019-05-30T10:11:19.902Z,1013.82
2019-05-30T10:12:19.584Z,1013.75
2019-05-30T10:13:19.226Z,1013.73
2019-05-30T10:14:18.776Z,1013.72
2019-05-30T10:15:18.409Z,1013.74
2019-05-30T10:16:18.081Z,1013.79
2019-05-30T10:17:17.793Z,1013.76
2019-05-30T10:18:17.313Z,1013.76
2019-05-30T10:19:16.857Z,1013.81
2019-05-30T10:20:16.558Z,1013.68
2019-05-30T10:21:19.092Z,1013.75
2019-05-30T10:22:17.958Z,1013.72
2019-05-30T10:23:17.540Z,1013.78
2019-05-30T10:24:17.217Z,1013.80
2019-05-30T10:25:19.734Z,1013.76
2019-05-30T10:26:18.613Z,1013.75
2019-05-30T10:27:18.253Z,1013.75
2019-05-30T10:28:17.819Z,1013.72
2019-05-30T10:29:20.405Z,1013.65
2019-05-30T10:30:19.326Z,1013.73
2019-05-30T10:31:18.868Z,1013.69
2019-05-30T10:32:18.262Z,1013.72
2019-05-30T10:33:18.044Z,1013.83
2019-05-30T10:34:17.384Z,1013.78
2019-05-30T10:35:18.640Z,1013.76
2019-05-30T10:36:20.019Z,1013.76
2019-05-30T10:37:17.442Z,1013.74
2019-05-30T10:38:19.995Z,1013.74
2019-05-30T10:39:16.659Z,1013.75
2019-05-30T10:40:16.336Z,1013.84
2019-05-30T10:41:15.981Z,1013.76
2019-05-30T10:42:15.656Z,1013.79
2019-05-30T10:43:15.284Z,1013.80
2019-05-30T10:44:14.834Z,1013.78
2019-05-30T10:45:14.246Z,1013.78
2019-05-30T10:46:13.701Z,1013.72
2019-05-30T10:47:17.277Z,1013.78
2019-05-30T10:48:16.393Z,1013.74
2019-05-30T10:49:15.801Z,1013.72
2019-05-30T10:50:15.478Z,1013.82
2019-05-30T10:51:15.017Z,1013.89
2019-05-30T10:52:14.649Z,1013.86
2019-05-30T10:53:14.152Z,1013.83
2019-05-30T10:54:13.732Z,1013.82
2019-05-30T10:55:13.278Z,1013.77
2019-05-30T10:56:12.879Z,1013.87
2019-05-30T10:57:12.476Z,1013.85
2019-05-30T10:58:11.838Z,1013.84
2019-05-30T10:59:11.572Z,1013.82
2019-05-30T11:00:11.524Z,1013.89
2019-05-30T11:01:10.792Z,1013.80
2019-05-30T11:02:10.284Z,1013.74
2019-05-30T11:03:09.914Z,1013.74
2019-05-30T11:04:09.476Z,1013.78
2019-05-30T11:05:09.123Z,1013.78
2019-05-30T11:06:08.752Z,1013.78
2019-05-30T11:07:11.604Z,1013.72
2019-05-30T11:08:07.939Z,1013.72
2019-05-30T11:09:07.680Z,1013.72
2019-05-30T11:10:12.138Z,1013.78
2019-05-30T11:11:10.670Z,1013.72
2019-05-30T11:12:10.064Z,1013.77
2019-05-30T11:13:09.597Z,1013.66
2019-05-30T11:14:09.112Z,1013.71
2019-05-30T11:15:08.939Z,1013.72
2019-05-30T11:16:08.315Z,1013.67
2019-05-30T11:17:07.858Z,1013.66
2019-05-30T11:18:07.511Z,1013.65
2019-05-30T11:19:07.709Z,1013.62
2019-05-30T11:20:06.604Z,1013.60
2019-05-30T11:21:06.118Z,1013.64
2019-05-30T11:22:05.737Z,1013.60
2019-05-30T11:23:10.599Z,1013.63
2019-05-30T11:24:09.267Z,1013.63
2019-05-30T11:25:08.869Z,1013.59
2019-05-30T11:26:08.302Z,1013.60
2019-05-30T11:27:13.059Z,1013.53
2019-05-30T11:28:11.580Z,1013.56
2019-05-30T11:29:11.170Z,1013.58
2019-05-30T11:30:15.452Z,1013.58
2019-05-30T11:31:14.067Z,1013.64
2019-05-30T11:32:13.643Z,1013.63
2019-05-30T11:33:17.990Z,1013.60
2019-05-30T11:34:16.597Z,1013.58
2019-05-30T11:35:20.985Z,1013.59
2019-05-30T11:36:19.712Z,1013.61
2019-05-30T11:37:19.358Z,1013.64
2019-05-30T11:38:18.911Z,1013.57
2019-05-30T11:39:18.280Z,1013.65
2019-05-30T11:40:17.800Z,1013.52
2019-05-30T11:41:17.533Z,1013.66
2019-05-30T11:42:17.169Z,1013.67
2019-05-30T11:43:16.812Z,1013.66
2019-05-30T11:44:16.175Z,1013.55
2019-05-30T11:45:15.652Z,1013.53
2019-05-30T11:46:15.187Z,1013.56
2019-05-30T11:47:14.654Z,1013.59
2019-05-30T11:48:14.181Z,1013.61
2019-05-30T11:49:13.847Z,1013.60
2019-05-30T11:50:13.325Z,1013.58
2019-05-30T11:51:12.806Z,1013.52
2019-05-30T11:52:12.388Z,1013.47
2019-05-30T11:53:11.845Z,1013.51
2019-05-30T11:54:11.374Z,1013.57
2019-05-30T11:55:10.869Z,1013.48
2019-05-30T11:56:10.364Z,1013.47
2019-05-30T11:57:09.945Z,1013.45
2019-05-30T11:58:09.421Z,1013.52
2019-05-30T11:59:08.925Z,1013.53
2019-05-30T12:00:08.389Z,1013.54
2019-05-30T12:01:07.949Z,1013.49